sensor_id;sensor_type;location;lat;lon;timestamp;temperature;humidity
12622;DHT22;6376;48.182;-1.644;2022-09-13T00:01:29;21.90;75.70
12622;DHT22;6376;48.182;-1.644;2022-09-13T00:03:55;21.90;75.70
12622;DHT22;6376;48.182;-1.644;2022-09-13T00:06:21;21.90;75.70
12622;DHT22;6376;48.182;-1.644;2022-09-13T00:08:47;21.90;75.70
12622;DHT22;6376;48.182;-1.644;2022-09-13T00:11:22;21.90;75.70
12622;DHT22;6376;48.182;-1.644;2022-09-13T00:13:49;21.90;75.70
12622;DHT22;6376;48.182;-1.644;2022-09-13T00:16:17;21.90;75.80
12622;DHT22;6376;48.182;-1.644;2022-09-13T00:18:43;21.90;75.70
12622;DHT22;6376;48.182;-1.644;2022-09-13T00:21:14;21.90;75.70
12622;DHT22;6376;48.182;-1.644;2022-09-13T00:23:44;21.90;75.70
12622;DHT22;6376;48.182;-1.644;2022-09-13T00:26:12;21.90;75.70
12622;DHT22;6376;48.182;-1.644;2022-09-13T00:28:38;21.90;75.80
12622;DHT22;6376;48.182;-1.644;2022-09-13T00:31:06;21.90;75.80
12622;DHT22;6376;48.182;-1.644;2022-09-13T00:33:32;21.90;75.80
12622;DHT22;6376;48.182;-1.644;2022-09-13T00:36:02;21.90;75.80
12622;DHT22;6376;48.182;-1.644;2022-09-13T00:38:28;21.90;75.80
12622;DHT22;6376;48.182;-1.644;2022-09-13T00:40:54;21.90;75.80
12622;DHT22;6376;48.182;-1.644;2022-09-13T00:43:36;21.90;75.80
12622;DHT22;6376;48.182;-1.644;2022-09-13T00:46:04;21.90;75.80
12622;DHT22;6376;48.182;-1.644;2022-09-13T00:48:32;21.90;75.80
12622;DHT22;6376;48.182;-1.644;2022-09-13T00:50:59;21.90;75.80
12622;DHT22;6376;48.182;-1.644;2022-09-13T00:53:36;21.90;75.80
12622;DHT22;6376;48.182;-1.644;2022-09-13T00:58:49;21.90;75.90
12622;DHT22;6376;48.182;-1.644;2022-09-13T01:01:18;21.90;75.80
12622;DHT22;6376;48.182;-1.644;2022-09-13T01:03:46;21.90;75.90
12622;DHT22;6376;48.182;-1.644;2022-09-13T01:06:25;21.90;75.90
12622;DHT22;6376;48.182;-1.644;2022-09-13T01:08:57;21.90;76.00
12622;DHT22;6376;48.182;-1.644;2022-09-13T01:14:06;21.90;75.90
12622;DHT22;6376;48.182;-1.644;2022-09-13T01:16:33;21.90;75.90
12622;DHT22;6376;48.182;-1.644;2022-09-13T01:18:59;21.90;76.00
12622;DHT22;6376;48.182;-1.644;2022-09-13T01:24:15;21.90;76.00
12622;DHT22;6376;48.182;-1.644;2022-09-13T01:37:55;21.90;76.00
12622;DHT22;6376;48.182;-1.644;2022-09-13T01:46:01;21.90;76.00
12622;DHT22;6376;48.182;-1.644;2022-09-13T01:51:26;21.90;76.10
12622;DHT22;6376;48.182;-1.644;2022-09-13T01:56:37;21.90;76.00
12622;DHT22;6376;48.182;-1.644;2022-09-13T02:02:01;21.90;76.10
12622;DHT22;6376;48.182;-1.644;2022-09-13T02:04:32;21.90;76.10
12622;DHT22;6376;48.182;-1.644;2022-09-13T02:07:02;21.90;76.10
12622;DHT22;6376;48.182;-1.644;2022-09-13T02:09:33;21.90;76.10
12622;DHT22;6376;48.182;-1.644;2022-09-13T02:12:17;21.90;76.10
12622;DHT22;6376;48.182;-1.644;2022-09-13T02:14:50;21.90;76.10
12622;DHT22;6376;48.182;-1.644;2022-09-13T02:17:22;21.90;76.10
12622;DHT22;6376;48.182;-1.644;2022-09-13T02:19:56;21.80;76.10
12622;DHT22;6376;48.182;-1.644;2022-09-13T02:22:31;21.90;76.10
12622;DHT22;6376;48.182;-1.644;2022-09-13T02:25:18;21.90;76.10
12622;DHT22;6376;48.182;-1.644;2022-09-13T02:27:48;21.80;76.10
12622;DHT22;6376;48.182;-1.644;2022-09-13T02:30:16;21.80;76.10
12622;DHT22;6376;48.182;-1.644;2022-09-13T02:35:37;21.80;76.10
12622;DHT22;6376;48.182;-1.644;2022-09-13T02:38:07;21.80;76.30
12622;DHT22;6376;48.182;-1.644;2022-09-13T02:40:42;21.80;76.30
12622;DHT22;6376;48.182;-1.644;2022-09-13T02:43:19;21.80;76.20
12622;DHT22;6376;48.182;-1.644;2022-09-13T02:46:06;21.80;76.30
12622;DHT22;6376;48.182;-1.644;2022-09-13T02:49:14;21.80;76.30
12622;DHT22;6376;48.182;-1.644;2022-09-13T02:51:48;21.80;76.20
12622;DHT22;6376;48.182;-1.644;2022-09-13T02:54:43;21.80;76.40
12622;DHT22;6376;48.182;-1.644;2022-09-13T03:00:05;21.80;76.30
12622;DHT22;6376;48.182;-1.644;2022-09-13T03:02:31;21.80;76.40
12622;DHT22;6376;48.182;-1.644;2022-09-13T03:04:59;21.80;76.50
12622;DHT22;6376;48.182;-1.644;2022-09-13T03:07:25;21.80;76.40
12622;DHT22;6376;48.182;-1.644;2022-09-13T03:09:55;21.80;76.40
12622;DHT22;6376;48.182;-1.644;2022-09-13T03:18:50;21.80;76.40
12622;DHT22;6376;48.182;-1.644;2022-09-13T03:24:22;21.80;76.50
12622;DHT22;6376;48.182;-1.644;2022-09-13T03:27:23;21.80;76.50
12622;DHT22;6376;48.182;-1.644;2022-09-13T03:29:55;21.80;76.60
12622;DHT22;6376;48.182;-1.644;2022-09-13T03:38:07;21.80;76.50
12622;DHT22;6376;48.182;-1.644;2022-09-13T03:46:08;21.80;76.60
12622;DHT22;6376;48.182;-1.644;2022-09-13T03:48:36;21.70;76.60
12622;DHT22;6376;48.182;-1.644;2022-09-13T03:51:04;21.80;76.60
12622;DHT22;6376;48.182;-1.644;2022-09-13T03:53:32;21.80;76.60
12622;DHT22;6376;48.182;-1.644;2022-09-13T03:55:58;21.70;76.60
12622;DHT22;6376;48.182;-1.644;2022-09-13T03:58:25;21.70;76.60
12622;DHT22;6376;48.182;-1.644;2022-09-13T04:00:51;21.70;76.60
12622;DHT22;6376;48.182;-1.644;2022-09-13T04:03:19;21.70;76.60
12622;DHT22;6376;48.182;-1.644;2022-09-13T04:05:45;21.70;76.60
12622;DHT22;6376;48.182;-1.644;2022-09-13T04:08:11;21.70;76.70
12622;DHT22;6376;48.182;-1.644;2022-09-13T04:10:37;21.70;76.70
12622;DHT22;6376;48.182;-1.644;2022-09-13T04:13:03;21.70;76.70
12622;DHT22;6376;48.182;-1.644;2022-09-13T04:15:29;21.70;76.70
12622;DHT22;6376;48.182;-1.644;2022-09-13T04:17:58;21.70;76.70
12622;DHT22;6376;48.182;-1.644;2022-09-13T04:20:24;21.70;76.70
12622;DHT22;6376;48.182;-1.644;2022-09-13T04:22:54;21.70;77.00
12622;DHT22;6376;48.182;-1.644;2022-09-13T04:25:21;21.70;76.80
12622;DHT22;6376;48.182;-1.644;2022-09-13T04:27:47;21.70;76.90
12622;DHT22;6376;48.182;-1.644;2022-09-13T04:30:14;21.80;76.90
12622;DHT22;6376;48.182;-1.644;2022-09-13T04:32:43;21.70;76.70
12622;DHT22;6376;48.182;-1.644;2022-09-13T04:35:09;21.70;76.80
12622;DHT22;6376;48.182;-1.644;2022-09-13T04:37:36;21.80;76.90
12622;DHT22;6376;48.182;-1.644;2022-09-13T04:40:02;21.70;76.80
12622;DHT22;6376;48.182;-1.644;2022-09-13T04:42:28;21.70;77.50
12622;DHT22;6376;48.182;-1.644;2022-09-13T04:44:54;21.70;77.50
12622;DHT22;6376;48.182;-1.644;2022-09-13T04:47:20;21.70;77.40
12622;DHT22;6376;48.182;-1.644;2022-09-13T04:49:46;21.70;77.50
12622;DHT22;6376;48.182;-1.644;2022-09-13T04:52:13;21.60;77.70
12622;DHT22;6376;48.182;-1.644;2022-09-13T04:54:39;21.60;78.00
12622;DHT22;6376;48.182;-1.644;2022-09-13T04:57:04;21.60;78.10
12622;DHT22;6376;48.182;-1.644;2022-09-13T04:59:31;21.60;78.00
12622;DHT22;6376;48.182;-1.644;2022-09-13T05:01:56;21.50;78.00
12622;DHT22;6376;48.182;-1.644;2022-09-13T05:04:22;21.50;78.20
12622;DHT22;6376;48.182;-1.644;2022-09-13T05:06:48;21.50;79.10
12622;DHT22;6376;48.182;-1.644;2022-09-13T05:09:14;21.50;78.50
12622;DHT22;6376;48.182;-1.644;2022-09-13T05:11:40;21.50;78.70
12622;DHT22;6376;48.182;-1.644;2022-09-13T05:14:09;21.40;78.50
12622;DHT22;6376;48.182;-1.644;2022-09-13T05:16:35;21.40;78.60
12622;DHT22;6376;48.182;-1.644;2022-09-13T05:19:01;21.50;78.80
12622;DHT22;6376;48.182;-1.644;2022-09-13T05:21:27;21.40;78.60
12622;DHT22;6376;48.182;-1.644;2022-09-13T05:23:54;21.40;78.80
12622;DHT22;6376;48.182;-1.644;2022-09-13T05:26:22;21.40;78.80
12622;DHT22;6376;48.182;-1.644;2022-09-13T05:28:48;21.40;78.80
12622;DHT22;6376;48.182;-1.644;2022-09-13T05:31:19;21.40;78.80
12622;DHT22;6376;48.182;-1.644;2022-09-13T05:33:47;21.40;78.80
12622;DHT22;6376;48.182;-1.644;2022-09-13T05:36:13;21.40;79.00
12622;DHT22;6376;48.182;-1.644;2022-09-13T05:38:39;21.40;78.80
12622;DHT22;6376;48.182;-1.644;2022-09-13T05:41:05;21.40;78.80
12622;DHT22;6376;48.182;-1.644;2022-09-13T05:43:33;21.40;78.80
12622;DHT22;6376;48.182;-1.644;2022-09-13T05:46:12;21.40;78.90
12622;DHT22;6376;48.182;-1.644;2022-09-13T05:48:38;21.40;79.00
12622;DHT22;6376;48.182;-1.644;2022-09-13T05:53:31;21.40;78.80
12622;DHT22;6376;48.182;-1.644;2022-09-13T05:55:56;21.40;78.90
12622;DHT22;6376;48.182;-1.644;2022-09-13T05:58:22;21.40;78.90
12622;DHT22;6376;48.182;-1.644;2022-09-13T06:00:57;21.40;79.00
12622;DHT22;6376;48.182;-1.644;2022-09-13T06:03:23;21.40;78.90
12622;DHT22;6376;48.182;-1.644;2022-09-13T06:05:49;21.40;79.10
12622;DHT22;6376;48.182;-1.644;2022-09-13T06:08:15;21.40;79.00
12622;DHT22;6376;48.182;-1.644;2022-09-13T06:10:40;21.40;79.00
12622;DHT22;6376;48.182;-1.644;2022-09-13T06:13:06;21.40;79.00
12622;DHT22;6376;48.182;-1.644;2022-09-13T06:15:32;21.40;79.00
12622;DHT22;6376;48.182;-1.644;2022-09-13T06:17:58;21.40;79.10
12622;DHT22;6376;48.182;-1.644;2022-09-13T06:20:23;21.40;79.20
12622;DHT22;6376;48.182;-1.644;2022-09-13T06:22:49;21.40;79.20
12622;DHT22;6376;48.182;-1.644;2022-09-13T06:25:15;21.40;79.20
12622;DHT22;6376;48.182;-1.644;2022-09-13T06:27:41;21.40;79.20
12622;DHT22;6376;48.182;-1.644;2022-09-13T06:30:07;21.40;80.00
12622;DHT22;6376;48.182;-1.644;2022-09-13T06:32:34;21.40;79.40
12622;DHT22;6376;48.182;-1.644;2022-09-13T06:34:59;21.40;79.50
12622;DHT22;6376;48.182;-1.644;2022-09-13T06:37:25;21.40;79.40
12622;DHT22;6376;48.182;-1.644;2022-09-13T06:39:51;21.40;79.50
12622;DHT22;6376;48.182;-1.644;2022-09-13T06:42:16;21.40;79.40
12622;DHT22;6376;48.182;-1.644;2022-09-13T06:44:42;21.40;79.30
12622;DHT22;6376;48.182;-1.644;2022-09-13T06:47:10;21.40;79.20
12622;DHT22;6376;48.182;-1.644;2022-09-13T06:49:36;21.40;79.30
12622;DHT22;6376;48.182;-1.644;2022-09-13T06:52:02;21.40;79.10
12622;DHT22;6376;48.182;-1.644;2022-09-13T06:54:28;21.50;78.90
12622;DHT22;6376;48.182;-1.644;2022-09-13T06:56:53;21.50;78.70
12622;DHT22;6376;48.182;-1.644;2022-09-13T06:59:19;21.50;78.70
12622;DHT22;6376;48.182;-1.644;2022-09-13T07:01:45;21.60;78.50
12622;DHT22;6376;48.182;-1.644;2022-09-13T07:04:17;21.60;78.50
12622;DHT22;6376;48.182;-1.644;2022-09-13T07:06:48;21.60;78.50
12622;DHT22;6376;48.182;-1.644;2022-09-13T07:09:19;21.60;78.40
12622;DHT22;6376;48.182;-1.644;2022-09-13T07:11:46;21.60;78.30
12622;DHT22;6376;48.182;-1.644;2022-09-13T07:14:21;21.60;78.20
12622;DHT22;6376;48.182;-1.644;2022-09-13T07:16:47;21.60;78.30
12622;DHT22;6376;48.182;-1.644;2022-09-13T07:19:18;21.60;78.20
12622;DHT22;6376;48.182;-1.644;2022-09-13T07:21:45;21.60;78.20
12622;DHT22;6376;48.182;-1.644;2022-09-13T07:24:11;21.60;78.00
12622;DHT22;6376;48.182;-1.644;2022-09-13T07:26:37;21.60;78.30
12622;DHT22;6376;48.182;-1.644;2022-09-13T07:29:05;21.60;78.20
12622;DHT22;6376;48.182;-1.644;2022-09-13T07:31:36;21.60;78.80
12622;DHT22;6376;48.182;-1.644;2022-09-13T07:34:04;21.60;77.90
12622;DHT22;6376;48.182;-1.644;2022-09-13T07:36:32;21.60;77.80
12622;DHT22;6376;48.182;-1.644;2022-09-13T07:38:58;21.60;77.80
12622;DHT22;6376;48.182;-1.644;2022-09-13T07:41:26;21.60;77.70
12622;DHT22;6376;48.182;-1.644;2022-09-13T07:43:52;21.60;77.70
12622;DHT22;6376;48.182;-1.644;2022-09-13T07:46:26;21.60;77.70
12622;DHT22;6376;48.182;-1.644;2022-09-13T07:48:54;21.60;77.70
12622;DHT22;6376;48.182;-1.644;2022-09-13T07:51:25;21.60;77.70
12622;DHT22;6376;48.182;-1.644;2022-09-13T07:53:53;21.60;77.60
12622;DHT22;6376;48.182;-1.644;2022-09-13T07:56:22;21.60;77.70
12622;DHT22;6376;48.182;-1.644;2022-09-13T07:58:49;21.60;77.70
12622;DHT22;6376;48.182;-1.644;2022-09-13T08:01:24;21.60;77.60
12622;DHT22;6376;48.182;-1.644;2022-09-13T08:03:57;21.60;77.60
12622;DHT22;6376;48.182;-1.644;2022-09-13T08:06:25;21.60;77.60
12622;DHT22;6376;48.182;-1.644;2022-09-13T08:08:51;21.60;77.60
12622;DHT22;6376;48.182;-1.644;2022-09-13T08:11:22;21.60;77.60
12622;DHT22;6376;48.182;-1.644;2022-09-13T08:13:50;21.60;77.60
12622;DHT22;6376;48.182;-1.644;2022-09-13T08:16:17;21.60;77.60
12622;DHT22;6376;48.182;-1.644;2022-09-13T08:18:45;21.60;77.50
12622;DHT22;6376;48.182;-1.644;2022-09-13T08:21:10;21.60;77.50
12622;DHT22;6376;48.182;-1.644;2022-09-13T08:23:36;21.60;77.50
12622;DHT22;6376;48.182;-1.644;2022-09-13T08:26:03;21.60;77.50
12622;DHT22;6376;48.182;-1.644;2022-09-13T08:28:29;21.60;77.40
12622;DHT22;6376;48.182;-1.644;2022-09-13T08:31:01;21.70;77.50
12622;DHT22;6376;48.182;-1.644;2022-09-13T08:33:27;21.70;77.60
12622;DHT22;6376;48.182;-1.644;2022-09-13T08:35:53;21.70;77.50
12622;DHT22;6376;48.182;-1.644;2022-09-13T08:38:20;21.70;77.50
12622;DHT22;6376;48.182;-1.644;2022-09-13T08:41:16;21.70;77.50
12622;DHT22;6376;48.182;-1.644;2022-09-13T08:43:50;21.70;77.40
12622;DHT22;6376;48.182;-1.644;2022-09-13T08:48:50;21.70;77.50
12622;DHT22;6376;48.182;-1.644;2022-09-13T08:54:11;21.70;77.40
12622;DHT22;6376;48.182;-1.644;2022-09-13T09:02:11;21.70;77.30
12622;DHT22;6376;48.182;-1.644;2022-09-13T09:05:09;21.70;77.20
12622;DHT22;6376;48.182;-1.644;2022-09-13T09:10:22;21.70;77.20
12622;DHT22;6376;48.182;-1.644;2022-09-13T09:15:36;21.70;77.20
12622;DHT22;6376;48.182;-1.644;2022-09-13T09:18:16;21.70;77.20
12622;DHT22;6376;48.182;-1.644;2022-09-13T09:23:36;21.70;77.20
12622;DHT22;6376;48.182;-1.644;2022-09-13T09:28:40;21.70;77.20
12622;DHT22;6376;48.182;-1.644;2022-09-13T09:37:02;21.70;77.10
12622;DHT22;6376;48.182;-1.644;2022-09-13T09:39:31;21.70;77.10
12622;DHT22;6376;48.182;-1.644;2022-09-13T09:41:58;21.80;77.00
12622;DHT22;6376;48.182;-1.644;2022-09-13T09:44:28;21.80;77.00
12622;DHT22;6376;48.182;-1.644;2022-09-13T09:47:02;21.80;77.00
12622;DHT22;6376;48.182;-1.644;2022-09-13T09:52:20;21.80;77.00
12622;DHT22;6376;48.182;-1.644;2022-09-13T09:54:48;21.80;76.90
12622;DHT22;6376;48.182;-1.644;2022-09-13T09:57:15;21.80;76.90
12622;DHT22;6376;48.182;-1.644;2022-09-13T09:59:43;21.80;76.90
12622;DHT22;6376;48.182;-1.644;2022-09-13T10:02:17;21.80;76.90
12622;DHT22;6376;48.182;-1.644;2022-09-13T10:04:54;21.80;76.90
12622;DHT22;6376;48.182;-1.644;2022-09-13T10:07:25;21.80;76.80
12622;DHT22;6376;48.182;-1.644;2022-09-13T10:10:01;21.80;76.70
12622;DHT22;6376;48.182;-1.644;2022-09-13T10:12:34;21.90;76.70
12622;DHT22;6376;48.182;-1.644;2022-09-13T10:17:30;21.90;76.40
12622;DHT22;6376;48.182;-1.644;2022-09-13T10:20:18;21.90;76.40
12622;DHT22;6376;48.182;-1.644;2022-09-13T10:22:44;21.90;76.40
12622;DHT22;6376;48.182;-1.644;2022-09-13T10:25:21;21.90;76.30
12622;DHT22;6376;48.182;-1.644;2022-09-13T10:27:51;22.00;76.40
12622;DHT22;6376;48.182;-1.644;2022-09-13T10:30:45;22.00;76.30
12622;DHT22;6376;48.182;-1.644;2022-09-13T10:33:32;22.00;76.30
12622;DHT22;6376;48.182;-1.644;2022-09-13T10:39:02;22.00;76.30
12622;DHT22;6376;48.182;-1.644;2022-09-13T10:41:34;22.00;77.00
12622;DHT22;6376;48.182;-1.644;2022-09-13T10:44:04;22.00;76.20
12622;DHT22;6376;48.182;-1.644;2022-09-13T10:46:35;22.10;76.00
12622;DHT22;6376;48.182;-1.644;2022-09-13T10:49:04;22.10;75.60
12622;DHT22;6376;48.182;-1.644;2022-09-13T10:51:35;22.20;75.50
12622;DHT22;6376;48.182;-1.644;2022-09-13T10:54:23;22.20;75.50
12622;DHT22;6376;48.182;-1.644;2022-09-13T10:56:49;22.20;75.60
12622;DHT22;6376;48.182;-1.644;2022-09-13T10:59:27;22.10;75.80
12622;DHT22;6376;48.182;-1.644;2022-09-13T11:07:47;22.10;75.80
12622;DHT22;6376;48.182;-1.644;2022-09-13T11:10:49;22.10;75.80
12622;DHT22;6376;48.182;-1.644;2022-09-13T11:22:30;22.10;76.00
12622;DHT22;6376;48.182;-1.644;2022-09-13T11:27:54;22.20;75.90
12622;DHT22;6376;48.182;-1.644;2022-09-13T11:30:23;22.20;75.90
12622;DHT22;6376;48.182;-1.644;2022-09-13T11:33:12;22.10;75.90
12622;DHT22;6376;48.182;-1.644;2022-09-13T11:40:55;22.10;76.80
12622;DHT22;6376;48.182;-1.644;2022-09-13T11:57:34;22.20;76.10
12622;DHT22;6376;48.182;-1.644;2022-09-13T12:00:03;22.10;76.10
12622;DHT22;6376;48.182;-1.644;2022-09-13T12:05:05;22.10;76.10
12622;DHT22;6376;48.182;-1.644;2022-09-13T12:10:24;22.10;76.20
12622;DHT22;6376;48.182;-1.644;2022-09-13T12:12:52;22.10;76.30
12622;DHT22;6376;48.182;-1.644;2022-09-13T12:15:31;22.10;76.10
12622;DHT22;6376;48.182;-1.644;2022-09-13T12:18:13;22.20;76.90
12622;DHT22;6376;48.182;-1.644;2022-09-13T12:20:52;22.10;76.10
12622;DHT22;6376;48.182;-1.644;2022-09-13T12:23:40;22.10;76.10
12622;DHT22;6376;48.182;-1.644;2022-09-13T12:26:18;22.10;76.10
12622;DHT22;6376;48.182;-1.644;2022-09-13T12:28:50;22.10;76.20
12622;DHT22;6376;48.182;-1.644;2022-09-13T12:31:28;22.10;76.20
12622;DHT22;6376;48.182;-1.644;2022-09-13T12:33:54;22.10;76.30
12622;DHT22;6376;48.182;-1.644;2022-09-13T12:48:28;22.20;76.00
12622;DHT22;6376;48.182;-1.644;2022-09-13T12:59:41;22.20;76.10
12622;DHT22;6376;48.182;-1.644;2022-09-13T13:02:35;22.20;75.90
12622;DHT22;6376;48.182;-1.644;2022-09-13T13:05:05;22.20;75.90
12622;DHT22;6376;48.182;-1.644;2022-09-13T13:07:40;22.20;76.00
12622;DHT22;6376;48.182;-1.644;2022-09-13T13:10:23;22.20;75.90
12622;DHT22;6376;48.182;-1.644;2022-09-13T13:12:50;22.30;75.90
12622;DHT22;6376;48.182;-1.644;2022-09-13T13:17:53;22.20;75.90
12622;DHT22;6376;48.182;-1.644;2022-09-13T13:49:52;22.30;76.10
12622;DHT22;6376;48.182;-1.644;2022-09-13T13:52:39;22.30;76.00
12622;DHT22;6376;48.182;-1.644;2022-09-13T14:00:50;22.30;76.10
12622;DHT22;6376;48.182;-1.644;2022-09-13T14:03:25;22.30;76.00
12622;DHT22;6376;48.182;-1.644;2022-09-13T14:06:35;22.30;76.10
12622;DHT22;6376;48.182;-1.644;2022-09-13T14:20:17;22.30;76.20
12622;DHT22;6376;48.182;-1.644;2022-09-13T14:22:45;22.30;76.10
12622;DHT22;6376;48.182;-1.644;2022-09-13T14:27:43;22.30;76.10
12622;DHT22;6376;48.182;-1.644;2022-09-13T14:32:46;22.40;76.40
12622;DHT22;6376;48.182;-1.644;2022-09-13T14:35:39;22.40;75.90
12622;DHT22;6376;48.182;-1.644;2022-09-13T14:38:20;22.40;76.10
12622;DHT22;6376;48.182;-1.644;2022-09-13T14:40:48;22.40;76.00
12622;DHT22;6376;48.182;-1.644;2022-09-13T14:43:17;22.30;75.90
12622;DHT22;6376;48.182;-1.644;2022-09-13T14:45:46;22.30;75.90
12622;DHT22;6376;48.182;-1.644;2022-09-13T14:48:23;22.40;76.00
12622;DHT22;6376;48.182;-1.644;2022-09-13T14:50:56;22.40;76.00
12622;DHT22;6376;48.182;-1.644;2022-09-13T14:53:27;22.40;76.00
12622;DHT22;6376;48.182;-1.644;2022-09-13T14:55:57;22.40;76.00
12622;DHT22;6376;48.182;-1.644;2022-09-13T14:58:29;22.40;76.00
12622;DHT22;6376;48.182;-1.644;2022-09-13T15:01:00;22.40;76.00
12622;DHT22;6376;48.182;-1.644;2022-09-13T15:03:26;22.40;75.90
12622;DHT22;6376;48.182;-1.644;2022-09-13T15:05:57;22.40;75.90
12622;DHT22;6376;48.182;-1.644;2022-09-13T15:08:42;22.40;75.90
12622;DHT22;6376;48.182;-1.644;2022-09-13T15:11:14;22.40;75.90
12622;DHT22;6376;48.182;-1.644;2022-09-13T15:13:41;22.40;75.90
12622;DHT22;6376;48.182;-1.644;2022-09-13T15:16:29;22.40;75.90
12622;DHT22;6376;48.182;-1.644;2022-09-13T15:19:36;22.40;75.90
12622;DHT22;6376;48.182;-1.644;2022-09-13T15:22:10;22.40;75.90
12622;DHT22;6376;48.182;-1.644;2022-09-13T15:24:42;22.40;76.10
12622;DHT22;6376;48.182;-1.644;2022-09-13T15:27:18;22.40;76.10
12622;DHT22;6376;48.182;-1.644;2022-09-13T15:32:41;22.40;76.10
12622;DHT22;6376;48.182;-1.644;2022-09-13T15:37:42;22.40;76.20
12622;DHT22;6376;48.182;-1.644;2022-09-13T15:40:21;22.40;76.30
12622;DHT22;6376;48.182;-1.644;2022-09-13T15:42:49;22.40;76.30
12622;DHT22;6376;48.182;-1.644;2022-09-13T15:45:16;22.40;76.30
12622;DHT22;6376;48.182;-1.644;2022-09-13T15:47:45;22.40;76.30
12622;DHT22;6376;48.182;-1.644;2022-09-13T15:50:26;22.30;76.30
12622;DHT22;6376;48.182;-1.644;2022-09-13T15:52:54;22.30;76.40
12622;DHT22;6376;48.182;-1.644;2022-09-13T15:55:20;22.30;76.30
12622;DHT22;6376;48.182;-1.644;2022-09-13T15:57:46;22.30;76.40
12622;DHT22;6376;48.182;-1.644;2022-09-13T16:00:18;22.30;76.50
12622;DHT22;6376;48.182;-1.644;2022-09-13T16:02:44;22.30;76.40
12622;DHT22;6376;48.182;-1.644;2022-09-13T16:05:10;22.30;76.40
12622;DHT22;6376;48.182;-1.644;2022-09-13T16:07:37;22.30;76.50
12622;DHT22;6376;48.182;-1.644;2022-09-13T16:10:09;22.30;76.50
12622;DHT22;6376;48.182;-1.644;2022-09-13T16:12:35;22.30;76.50
12622;DHT22;6376;48.182;-1.644;2022-09-13T16:15:01;22.30;76.60
12622;DHT22;6376;48.182;-1.644;2022-09-13T16:17:27;22.30;76.60
12622;DHT22;6376;48.182;-1.644;2022-09-13T16:19:53;22.30;76.60
12622;DHT22;6376;48.182;-1.644;2022-09-13T16:22:19;22.30;76.60
12622;DHT22;6376;48.182;-1.644;2022-09-13T16:24:45;22.30;76.60
12622;DHT22;6376;48.182;-1.644;2022-09-13T16:27:12;22.30;76.60
12622;DHT22;6376;48.182;-1.644;2022-09-13T16:29:39;22.30;76.80
12622;DHT22;6376;48.182;-1.644;2022-09-13T16:32:04;22.30;76.60
12622;DHT22;6376;48.182;-1.644;2022-09-13T16:34:30;22.30;76.70
12622;DHT22;6376;48.182;-1.644;2022-09-13T16:36:56;22.30;76.70
12622;DHT22;6376;48.182;-1.644;2022-09-13T16:39:22;22.30;76.80
12622;DHT22;6376;48.182;-1.644;2022-09-13T16:41:47;22.30;76.70
12622;DHT22;6376;48.182;-1.644;2022-09-13T16:44:13;22.30;76.80
12622;DHT22;6376;48.182;-1.644;2022-09-13T16:46:39;22.30;76.80
12622;DHT22;6376;48.182;-1.644;2022-09-13T16:49:05;22.30;76.80
12622;DHT22;6376;48.182;-1.644;2022-09-13T16:51:31;22.30;76.80
12622;DHT22;6376;48.182;-1.644;2022-09-13T16:53:57;22.30;76.80
12622;DHT22;6376;48.182;-1.644;2022-09-13T16:56:24;22.30;76.80
12622;DHT22;6376;48.182;-1.644;2022-09-13T16:58:51;22.30;76.90
12622;DHT22;6376;48.182;-1.644;2022-09-13T17:01:22;22.30;76.90
12622;DHT22;6376;48.182;-1.644;2022-09-13T17:03:48;22.30;76.90
12622;DHT22;6376;48.182;-1.644;2022-09-13T17:06:16;22.30;77.00
12622;DHT22;6376;48.182;-1.644;2022-09-13T17:08:49;22.30;76.90
12622;DHT22;6376;48.182;-1.644;2022-09-13T17:11:18;22.30;76.90
12622;DHT22;6376;48.182;-1.644;2022-09-13T17:13:44;22.30;77.00
12622;DHT22;6376;48.182;-1.644;2022-09-13T17:16:21;22.30;77.00
12622;DHT22;6376;48.182;-1.644;2022-09-13T17:18:47;22.20;77.00
12622;DHT22;6376;48.182;-1.644;2022-09-13T17:21:13;22.20;77.00
12622;DHT22;6376;48.182;-1.644;2022-09-13T17:23:39;22.20;77.00
12622;DHT22;6376;48.182;-1.644;2022-09-13T17:26:04;22.20;77.10
12622;DHT22;6376;48.182;-1.644;2022-09-13T17:28:30;22.20;77.10
12622;DHT22;6376;48.182;-1.644;2022-09-13T17:30:56;22.20;77.00
12622;DHT22;6376;48.182;-1.644;2022-09-13T17:33:21;22.20;77.10
12622;DHT22;6376;48.182;-1.644;2022-09-13T17:36:00;22.20;77.10
12622;DHT22;6376;48.182;-1.644;2022-09-13T17:38:26;22.20;77.10
12622;DHT22;6376;48.182;-1.644;2022-09-13T17:41:07;22.20;77.10
12622;DHT22;6376;48.182;-1.644;2022-09-13T17:43:36;22.20;77.10
12622;DHT22;6376;48.182;-1.644;2022-09-13T17:46:13;22.20;77.10
12622;DHT22;6376;48.182;-1.644;2022-09-13T17:48:39;22.20;77.20
12622;DHT22;6376;48.182;-1.644;2022-09-13T17:51:07;22.20;77.20
12622;DHT22;6376;48.182;-1.644;2022-09-13T17:53:37;22.20;77.20
12622;DHT22;6376;48.182;-1.644;2022-09-13T17:56:04;22.20;77.20
12622;DHT22;6376;48.182;-1.644;2022-09-13T17:58:32;22.20;77.20
12622;DHT22;6376;48.182;-1.644;2022-09-13T18:01:06;22.20;77.30
12622;DHT22;6376;48.182;-1.644;2022-09-13T18:03:33;22.20;77.30
12622;DHT22;6376;48.182;-1.644;2022-09-13T18:06:00;22.20;77.40
12622;DHT22;6376;48.182;-1.644;2022-09-13T18:08:27;22.20;77.40
12622;DHT22;6376;48.182;-1.644;2022-09-13T18:10:53;22.30;77.40
12622;DHT22;6376;48.182;-1.644;2022-09-13T18:13:20;22.40;77.30
12622;DHT22;6376;48.182;-1.644;2022-09-13T18:15:57;22.40;77.50
12622;DHT22;6376;48.182;-1.644;2022-09-13T18:18:23;22.40;77.70
12622;DHT22;6376;48.182;-1.644;2022-09-13T18:20:50;22.40;79.40
12622;DHT22;6376;48.182;-1.644;2022-09-13T18:23:41;22.50;80.50
12622;DHT22;6376;48.182;-1.644;2022-09-13T18:26:10;22.50;81.80
12622;DHT22;6376;48.182;-1.644;2022-09-13T18:28:37;22.50;82.50
12622;DHT22;6376;48.182;-1.644;2022-09-13T18:31:04;22.50;84.60
12622;DHT22;6376;48.182;-1.644;2022-09-13T18:33:30;22.50;84.10
12622;DHT22;6376;48.182;-1.644;2022-09-13T18:36:04;22.50;84.30
12622;DHT22;6376;48.182;-1.644;2022-09-13T18:38:39;22.50;84.70
12622;DHT22;6376;48.182;-1.644;2022-09-13T18:41:18;22.60;85.70
12622;DHT22;6376;48.182;-1.644;2022-09-13T18:43:46;22.50;85.20
12622;DHT22;6376;48.182;-1.644;2022-09-13T18:46:15;22.50;87.00
12622;DHT22;6376;48.182;-1.644;2022-09-13T18:48:43;22.50;87.70
12622;DHT22;6376;48.182;-1.644;2022-09-13T18:51:14;22.50;88.50
12622;DHT22;6376;48.182;-1.644;2022-09-13T18:53:40;22.50;89.10
12622;DHT22;6376;48.182;-1.644;2022-09-13T18:56:09;22.50;89.40
12622;DHT22;6376;48.182;-1.644;2022-09-13T18:58:37;22.50;90.30
12622;DHT22;6376;48.182;-1.644;2022-09-13T19:03:35;22.50;90.90
12622;DHT22;6376;48.182;-1.644;2022-09-13T19:06:19;22.40;91.50
12622;DHT22;6376;48.182;-1.644;2022-09-13T19:08:46;22.40;91.40
12622;DHT22;6376;48.182;-1.644;2022-09-13T19:11:13;22.40;91.90
12622;DHT22;6376;48.182;-1.644;2022-09-13T19:13:39;22.40;92.70
12622;DHT22;6376;48.182;-1.644;2022-09-13T19:16:08;22.50;93.40
12622;DHT22;6376;48.182;-1.644;2022-09-13T19:18:38;22.40;92.90
12622;DHT22;6376;48.182;-1.644;2022-09-13T19:23:39;22.40;93.40
12622;DHT22;6376;48.182;-1.644;2022-09-13T19:26:17;22.40;93.60
12622;DHT22;6376;48.182;-1.644;2022-09-13T19:28:47;22.40;93.80
12622;DHT22;6376;48.182;-1.644;2022-09-13T19:31:14;22.40;95.40
12622;DHT22;6376;48.182;-1.644;2022-09-13T19:33:41;22.40;95.10
12622;DHT22;6376;48.182;-1.644;2022-09-13T19:36:11;22.40;94.70